sensor_id;sensor_type;location;lat;lon;timestamp;P1;durP1;ratioP1;P2;durP2;ratioP2
77542;SDS011;66669;52.100;5.104;2023-02-18T00:00:59;5.95;;;2.88;;
77542;SDS011;66669;52.100;5.104;2023-02-18T00:03:26;6.05;;;3.35;;
77542;SDS011;66669;52.100;5.104;2023-02-18T00:05:52;7.15;;;3.42;;
77542;SDS011;66669;52.100;5.104;2023-02-18T00:08:18;7.60;;;4.00;;
77542;SDS011;66669;52.100;5.104;2023-02-18T00:10:44;8.45;;;3.97;;
77542;SDS011;66669;52.100;5.104;2023-02-18T00:13:10;6.90;;;4.43;;
77542;SDS011;66669;52.100;5.104;2023-02-18T00:15:35;8.52;;;4.38;;
77542;SDS011;66669;52.100;5.104;2023-02-18T00:18:01;7.32;;;4.78;;
77542;SDS011;66669;52.100;5.104;2023-02-18T00:20:27;8.77;;;5.03;;
77542;SDS011;66669;52.100;5.104;2023-02-18T00:22:52;8.73;;;5.18;;
77542;SDS011;66669;52.100;5.104;2023-02-18T00:25:18;8.07;;;5.15;;
77542;SDS011;66669;52.100;5.104;2023-02-18T00:27:43;11.10;;;6.70;;
77542;SDS011;66669;52.100;5.104;2023-02-18T00:30:09;9.65;;;5.88;;
77542;SDS011;66669;52.100;5.104;2023-02-18T00:32:34;8.95;;;6.00;;
77542;SDS011;66669;52.100;5.104;2023-02-18T00:35:00;13.10;;;6.38;;
77542;SDS011;66669;52.100;5.104;2023-02-18T00:37:25;13.93;;;6.32;;
77542;SDS011;66669;52.100;5.104;2023-02-18T00:39:51;14.52;;;6.97;;
77542;SDS011;66669;52.100;5.104;2023-02-18T00:42:16;12.23;;;7.07;;
77542;SDS011;66669;52.100;5.104;2023-02-18T00:44:42;11.68;;;7.60;;
77542;SDS011;66669;52.100;5.104;2023-02-18T00:47:07;12.80;;;8.38;;
77542;SDS011;66669;52.100;5.104;2023-02-18T00:49:33;11.60;;;7.25;;
77542;SDS011;66669;52.100;5.104;2023-02-18T00:51:58;10.43;;;6.90;;
77542;SDS011;66669;52.100;5.104;2023-02-18T00:54:23;11.63;;;8.70;;
77542;SDS011;66669;52.100;5.104;2023-02-18T00:56:49;10.45;;;7.55;;
77542;SDS011;66669;52.100;5.104;2023-02-18T00:59:14;11.20;;;7.35;;
77542;SDS011;66669;52.100;5.104;2023-02-18T01:01:40;10.43;;;7.20;;
77542;SDS011;66669;52.100;5.104;2023-02-18T01:04:06;10.27;;;7.55;;
77542;SDS011;66669;52.100;5.104;2023-02-18T01:06:31;10.05;;;7.10;;
77542;SDS011;66669;52.100;5.104;2023-02-18T01:08:57;9.75;;;7.45;;
77542;SDS011;66669;52.100;5.104;2023-02-18T01:11:22;10.63;;;7.30;;
77542;SDS011;66669;52.100;5.104;2023-02-18T01:13:48;8.38;;;6.53;;
77542;SDS011;66669;52.100;5.104;2023-02-18T01:16:13;8.60;;;6.22;;
77542;SDS011;66669;52.100;5.104;2023-02-18T01:18:39;7.65;;;5.88;;
77542;SDS011;66669;52.100;5.104;2023-02-18T01:21:05;6.85;;;5.30;;
77542;SDS011;66669;52.100;5.104;2023-02-18T01:23:32;7.45;;;5.32;;
77542;SDS011;66669;52.100;5.104;2023-02-18T01:25:58;7.50;;;4.93;;
77542;SDS011;66669;52.100;5.104;2023-02-18T01:28:24;7.10;;;4.85;;
77542;SDS011;66669;52.100;5.104;2023-02-18T01:30:51;7.13;;;4.85;;
77542;SDS011;66669;52.100;5.104;2023-02-18T01:33:18;7.15;;;4.90;;
77542;SDS011;66669;52.100;5.104;2023-02-18T01:35:44;6.03;;;4.60;;
77542;SDS011;66669;52.100;5.104;2023-02-18T01:38:10;6.57;;;4.95;;
77542;SDS011;66669;52.100;5.104;2023-02-18T01:40:42;6.32;;;4.75;;
77542;SDS011;66669;52.100;5.104;2023-02-18T01:43:11;5.57;;;4.55;;
77542;SDS011;66669;52.100;5.104;2023-02-18T01:56:53;7.28;;;4.93;;
77542;SDS011;66669;52.100;5.104;2023-02-18T01:59:23;7.20;;;5.07;;
77542;SDS011;66669;52.100;5.104;2023-02-18T02:01:51;7.22;;;5.47;;
77542;SDS011;66669;52.100;5.104;2023-02-18T02:04:18;7.43;;;5.30;;
77542;SDS011;66669;52.100;5.104;2023-02-18T02:06:44;6.78;;;5.25;;
77542;SDS011;66669;52.100;5.104;2023-02-18T02:09:10;7.82;;;5.20;;
77542;SDS011;66669;52.100;5.104;2023-02-18T02:17:23;7.30;;;5.82;;
77542;SDS011;66669;52.100;5.104;2023-02-18T02:20:17;6.65;;;5.22;;
77542;SDS011;66669;52.100;5.104;2023-02-18T02:28:20;8.20;;;6.05;;
77542;SDS011;66669;52.100;5.104;2023-02-18T02:31:07;8.68;;;6.22;;
77542;SDS011;66669;52.100;5.104;2023-02-18T02:45:03;6.93;;;5.60;;
77542;SDS011;66669;52.100;5.104;2023-02-18T02:47:36;7.22;;;5.85;;
77542;SDS011;66669;52.100;5.104;2023-02-18T02:50:12;7.97;;;5.95;;
77542;SDS011;66669;52.100;5.104;2023-02-18T02:52:49;6.70;;;5.32;;
77542;SDS011;66669;52.100;5.104;2023-02-18T02:55:21;6.93;;;5.20;;
77542;SDS011;66669;52.100;5.104;2023-02-18T02:57:48;8.23;;;6.25;;
77542;SDS011;66669;52.100;5.104;2023-02-18T03:00:16;6.72;;;5.20;;
77542;SDS011;66669;52.100;5.104;2023-02-18T03:06:06;8.57;;;6.07;;
77542;SDS011;66669;52.100;5.104;2023-02-18T03:08:44;7.13;;;5.38;;
77542;SDS011;66669;52.100;5.104;2023-02-18T03:11:13;8.68;;;5.97;;
77542;SDS011;66669;52.100;5.104;2023-02-18T03:22:02;7.68;;;6.07;;
77542;SDS011;66669;52.100;5.104;2023-02-18T03:24:39;7.57;;;5.85;;
77542;SDS011;66669;52.100;5.104;2023-02-18T03:27:21;8.65;;;6.05;;
77542;SDS011;66669;52.100;5.104;2023-02-18T03:29:53;6.85;;;5.63;;
77542;SDS011;66669;52.100;5.104;2023-02-18T03:32:23;7.25;;;5.28;;
77542;SDS011;66669;52.100;5.104;2023-02-18T03:34:53;5.90;;;4.90;;
77542;SDS011;66669;52.100;5.104;2023-02-18T03:37:22;6.53;;;4.70;;
77542;SDS011;66669;52.100;5.104;2023-02-18T03:39:49;6.93;;;4.75;;
77542;SDS011;66669;52.100;5.104;2023-02-18T03:42:19;5.53;;;4.25;;
77542;SDS011;66669;52.100;5.104;2023-02-18T03:44:49;5.38;;;4.20;;
77542;SDS011;66669;52.100;5.104;2023-02-18T03:47:15;5.40;;;3.80;;
77542;SDS011;66669;52.100;5.104;2023-02-18T03:49:40;5.55;;;4.35;;
77542;SDS011;66669;52.100;5.104;2023-02-18T03:52:06;4.28;;;3.50;;
77542;SDS011;66669;52.100;5.104;2023-02-18T03:54:31;4.50;;;3.33;;
77542;SDS011;66669;52.100;5.104;2023-02-18T03:56:56;3.90;;;3.13;;
77542;SDS011;66669;52.100;5.104;2023-02-18T03:59:22;3.95;;;2.95;;
77542;SDS011;66669;52.100;5.104;2023-02-18T04:01:47;4.10;;;3.00;;
77542;SDS011;66669;52.100;5.104;2023-02-18T04:04:12;3.92;;;2.78;;
77542;SDS011;66669;52.100;5.104;2023-02-18T04:06:38;2.97;;;2.65;;
77542;SDS011;66669;52.100;5.104;2023-02-18T04:09:03;2.78;;;2.40;;
77542;SDS011;66669;52.100;5.104;2023-02-18T04:11:32;3.45;;;2.80;;
77542;SDS011;66669;52.100;5.104;2023-02-18T04:14:03;2.83;;;2.13;;
77542;SDS011;66669;52.100;5.104;2023-02-18T04:16:28;2.90;;;2.30;;
77542;SDS011;66669;52.100;5.104;2023-02-18T04:18:54;3.28;;;2.75;;
77542;SDS011;66669;52.100;5.104;2023-02-18T04:21:19;2.65;;;2.20;;
77542;SDS011;66669;52.100;5.104;2023-02-18T04:23:44;2.67;;;2.42;;
77542;SDS011;66669;52.100;5.104;2023-02-18T04:26:10;2.63;;;2.13;;
77542;SDS011;66669;52.100;5.104;2023-02-18T04:28:35;2.05;;;1.85;;
77542;SDS011;66669;52.100;5.104;2023-02-18T04:31:00;2.65;;;2.08;;
77542;SDS011;66669;52.100;5.104;2023-02-18T04:33:26;2.40;;;1.90;;
77542;SDS011;66669;52.100;5.104;2023-02-18T04:35:51;2.08;;;1.80;;
77542;SDS011;66669;52.100;5.104;2023-02-18T04:38:16;1.85;;;1.67;;
77542;SDS011;66669;52.100;5.104;2023-02-18T04:40:42;2.10;;;1.90;;
77542;SDS011;66669;52.100;5.104;2023-02-18T04:43:07;1.65;;;1.50;;
77542;SDS011;66669;52.100;5.104;2023-02-18T04:45:32;1.80;;;1.55;;
77542;SDS011;66669;52.100;5.104;2023-02-18T04:47:58;1.75;;;1.60;;
77542;SDS011;66669;52.100;5.104;2023-02-18T04:50:23;1.88;;;1.48;;
77542;SDS011;66669;52.100;5.104;2023-02-18T04:52:49;1.90;;;1.60;;
77542;SDS011;66669;52.100;5.104;2023-02-18T04:55:14;2.00;;;1.42;;
77542;SDS011;66669;52.100;5.104;2023-02-18T04:57:40;1.70;;;1.40;;
77542;SDS011;66669;52.100;5.104;2023-02-18T05:00:06;2.10;;;1.70;;
77542;SDS011;66669;52.100;5.104;2023-02-18T05:02:35;1.48;;;1.38;;
77542;SDS011;66669;52.100;5.104;2023-02-18T05:05:00;2.15;;;1.40;;
77542;SDS011;66669;52.100;5.104;2023-02-18T05:07:26;1.92;;;1.40;;
77542;SDS011;66669;52.100;5.104;2023-02-18T05:09:51;1.38;;;1.17;;
77542;SDS011;66669;52.100;5.104;2023-02-18T05:12:17;1.55;;;1.30;;
77542;SDS011;66669;52.100;5.104;2023-02-18T05:14:42;2.40;;;1.50;;
77542;SDS011;66669;52.100;5.104;2023-02-18T05:17:07;1.40;;;1.13;;
77542;SDS011;66669;52.100;5.104;2023-02-18T05:19:33;1.63;;;1.27;;
77542;SDS011;66669;52.100;5.104;2023-02-18T05:21:58;2.35;;;1.48;;
77542;SDS011;66669;52.100;5.104;2023-02-18T05:24:23;3.22;;;1.60;;
77542;SDS011;66669;52.100;5.104;2023-02-18T05:26:49;2.40;;;1.60;;
77542;SDS011;66669;52.100;5.104;2023-02-18T05:29:14;1.70;;;1.60;;
77542;SDS011;66669;52.100;5.104;2023-02-18T05:31:40;1.98;;;1.55;;
77542;SDS011;66669;52.100;5.104;2023-02-18T05:34:06;2.53;;;1.90;;
77542;SDS011;66669;52.100;5.104;2023-02-18T05:36:31;2.40;;;1.70;;
77542;SDS011;66669;52.100;5.104;2023-02-18T05:38:56;3.15;;;2.05;;
77542;SDS011;66669;52.100;5.104;2023-02-18T05:41:22;2.67;;;1.90;;
77542;SDS011;66669;52.100;5.104;2023-02-18T05:43:47;2.13;;;1.92;;
77542;SDS011;66669;52.100;5.104;2023-02-18T05:46:31;3.60;;;2.60;;
77542;SDS011;66669;52.100;5.104;2023-02-18T05:48:57;2.72;;;2.20;;
77542;SDS011;66669;52.100;5.104;2023-02-18T05:51:22;3.45;;;2.40;;
77542;SDS011;66669;52.100;5.104;2023-02-18T05:53:47;2.38;;;1.85;;
77542;SDS011;66669;52.100;5.104;2023-02-18T05:56:13;2.92;;;2.22;;
77542;SDS011;66669;52.100;5.104;2023-02-18T05:58:38;2.83;;;2.08;;
77542;SDS011;66669;52.100;5.104;2023-02-18T06:01:04;3.47;;;2.25;;
77542;SDS011;66669;52.100;5.104;2023-02-18T06:03:29;2.33;;;1.70;;
77542;SDS011;66669;52.100;5.104;2023-02-18T06:05:55;2.10;;;1.90;;
77542;SDS011;66669;52.100;5.104;2023-02-18T06:08:20;3.03;;;1.73;;
77542;SDS011;66669;52.100;5.104;2023-02-18T06:10:46;2.38;;;2.15;;
77542;SDS011;66669;52.100;5.104;2023-02-18T06:13:11;3.47;;;2.00;;
77542;SDS011;66669;52.100;5.104;2023-02-18T06:15:37;2.50;;;1.88;;
77542;SDS011;66669;52.100;5.104;2023-02-18T06:18:03;2.90;;;1.90;;
77542;SDS011;66669;52.100;5.104;2023-02-18T06:20:29;2.97;;;2.15;;
77542;SDS011;66669;52.100;5.104;2023-02-18T06:22:55;3.55;;;2.03;;
77542;SDS011;66669;52.100;5.104;2023-02-18T06:25:20;3.17;;;1.90;;
77542;SDS011;66669;52.100;5.104;2023-02-18T06:27:45;2.60;;;1.90;;
77542;SDS011;66669;52.100;5.104;2023-02-18T06:30:11;3.47;;;2.40;;
77542;SDS011;66669;52.100;5.104;2023-02-18T06:32:36;3.22;;;2.13;;
77542;SDS011;66669;52.100;5.104;2023-02-18T06:35:02;3.22;;;2.42;;
77542;SDS011;66669;52.100;5.104;2023-02-18T06:37:27;3.50;;;2.47;;
77542;SDS011;66669;52.100;5.104;2023-02-18T06:39:53;4.00;;;2.45;;
77542;SDS011;66669;52.100;5.104;2023-02-18T06:42:18;3.85;;;2.75;;
77542;SDS011;66669;52.100;5.104;2023-02-18T06:44:43;3.05;;;2.58;;
77542;SDS011;66669;52.100;5.104;2023-02-18T06:47:09;3.22;;;2.58;;
77542;SDS011;66669;52.100;5.104;2023-02-18T06:49:34;4.05;;;2.80;;
77542;SDS011;66669;52.100;5.104;2023-02-18T06:52:00;4.90;;;2.55;;
77542;SDS011;66669;52.100;5.104;2023-02-18T06:54:26;3.53;;;2.30;;
77542;SDS011;66669;52.100;5.104;2023-02-18T06:56:51;3.90;;;2.42;;
77542;SDS011;66669;52.100;5.104;2023-02-18T06:59:17;4.13;;;2.67;;
77542;SDS011;66669;52.100;5.104;2023-02-18T07:01:43;3.63;;;2.40;;
77542;SDS011;66669;52.100;5.104;2023-02-18T07:04:08;3.60;;;2.28;;
77542;SDS011;66669;52.100;5.104;2023-02-18T07:06:33;4.15;;;2.45;;
77542;SDS011;66669;52.100;5.104;2023-02-18T07:08:59;3.53;;;2.15;;
77542;SDS011;66669;52.100;5.104;2023-02-18T07:11:24;3.47;;;2.08;;
77542;SDS011;66669;52.100;5.104;2023-02-18T07:13:49;3.70;;;1.77;;
77542;SDS011;66669;52.100;5.104;2023-02-18T07:16:15;3.45;;;1.83;;
77542;SDS011;66669;52.100;5.104;2023-02-18T07:18:40;3.22;;;1.80;;
77542;SDS011;66669;52.100;5.104;2023-02-18T07:21:06;4.10;;;2.28;;
77542;SDS011;66669;52.100;5.104;2023-02-18T07:23:31;3.05;;;1.60;;
77542;SDS011;66669;52.100;5.104;2023-02-18T07:26:03;3.22;;;1.55;;
77542;SDS011;66669;52.100;5.104;2023-02-18T07:28:33;4.55;;;2.22;;
77542;SDS011;66669;52.100;5.104;2023-02-18T07:30:59;3.42;;;1.75;;
77542;SDS011;66669;52.100;5.104;2023-02-18T07:33:24;3.47;;;1.60;;
77542;SDS011;66669;52.100;5.104;2023-02-18T07:35:53;3.50;;;1.50;;
77542;SDS011;66669;52.100;5.104;2023-02-18T07:38:20;3.97;;;1.50;;
77542;SDS011;66669;52.100;5.104;2023-02-18T07:40:46;4.20;;;1.52;;
77542;SDS011;66669;52.100;5.104;2023-02-18T07:43:11;4.38;;;1.33;;
77542;SDS011;66669;52.100;5.104;2023-02-18T07:45:37;4.30;;;1.42;;
77542;SDS011;66669;52.100;5.104;2023-02-18T07:48:03;4.78;;;1.50;;
77542;SDS011;66669;52.100;5.104;2023-02-18T07:50:29;4.93;;;1.40;;
77542;SDS011;66669;52.100;5.104;2023-02-18T07:52:59;4.53;;;1.45;;
77542;SDS011;66669;52.100;5.104;2023-02-18T07:55:25;4.15;;;1.30;;
77542;SDS011;66669;52.100;5.104;2023-02-18T07:58:10;4.15;;;1.23;;
77542;SDS011;66669;52.100;5.104;2023-02-18T08:00:36;4.28;;;1.60;;
77542;SDS011;66669;52.100;5.104;2023-02-18T08:03:01;3.63;;;1.10;;
77542;SDS011;66669;52.100;5.104;2023-02-18T08:05:27;4.68;;;1.50;;
77542;SDS011;66669;52.100;5.104;2023-02-18T08:07:52;6.10;;;1.65;;
77542;SDS011;66669;52.100;5.104;2023-02-18T08:10:18;4.72;;;1.27;;
77542;SDS011;66669;52.100;5.104;2023-02-18T08:12:43;2.90;;;1.20;;
77542;SDS011;66669;52.100;5.104;2023-02-18T08:15:09;3.17;;;0.95;;
77542;SDS011;66669;52.100;5.104;2023-02-18T08:17:34;4.13;;;1.58;;
77542;SDS011;66669;52.100;5.104;2023-02-18T08:19:59;3.67;;;1.23;;
77542;SDS011;66669;52.100;5.104;2023-02-18T08:22:25;4.97;;;1.20;;
77542;SDS011;66669;52.100;5.104;2023-02-18T08:24:52;5.72;;;1.40;;
77542;SDS011;66669;52.100;5.104;2023-02-18T08:29:44;3.93;;;1.10;;
77542;SDS011;66669;52.100;5.104;2023-02-18T08:32:09;3.67;;;1.13;;
77542;SDS011;66669;52.100;5.104;2023-02-18T08:34:35;4.88;;;1.33;;
77542;SDS011;66669;52.100;5.104;2023-02-18T08:37:00;5.35;;;1.30;;
77542;SDS011;66669;52.100;5.104;2023-02-18T08:39:26;3.95;;;1.30;;
77542;SDS011;66669;52.100;5.104;2023-02-18T08:41:51;4.45;;;1.27;;
77542;SDS011;66669;52.100;5.104;2023-02-18T08:44:17;3.15;;;1.00;;
77542;SDS011;66669;52.100;5.104;2023-02-18T08:46:42;3.95;;;1.20;;
77542;SDS011;66669;52.100;5.104;2023-02-18T08:49:07;4.07;;;1.23;;
77542;SDS011;66669;52.100;5.104;2023-02-18T08:51:33;4.63;;;1.02;;
77542;SDS011;66669;52.100;5.104;2023-02-18T08:53:59;3.60;;;0.80;;
77542;SDS011;66669;52.100;5.104;2023-02-18T08:56:25;3.95;;;1.20;;
77542;SDS011;66669;52.100;5.104;2023-02-18T08:58:50;3.05;;;1.02;;
77542;SDS011;66669;52.100;5.104;2023-02-18T09:01:16;5.40;;;1.20;;
77542;SDS011;66669;52.100;5.104;2023-02-18T09:03:41;4.60;;;1.17;;
77542;SDS011;66669;52.100;5.104;2023-02-18T09:06:07;2.63;;;0.90;;
77542;SDS011;66669;52.100;5.104;2023-02-18T09:08:33;5.00;;;1.15;;
77542;SDS011;66669;52.100;5.104;2023-02-18T09:10:59;3.85;;;1.08;;
77542;SDS011;66669;52.100;5.104;2023-02-18T09:13:28;5.22;;;1.27;;
77542;SDS011;66669;52.100;5.104;2023-02-18T09:15:55;3.63;;;1.00;;
77542;SDS011;66669;52.100;5.104;2023-02-18T09:18:24;4.63;;;1.10;;
77542;SDS011;66669;52.100;5.104;2023-02-18T09:20:49;3.20;;;1.10;;
77542;SDS011;66669;52.100;5.104;2023-02-18T09:23:14;4.13;;;0.90;;
77542;SDS011;66669;52.100;5.104;2023-02-18T09:25:40;3.40;;;1.10;;
77542;SDS011;66669;52.100;5.104;2023-02-18T09:28:06;3.45;;;0.70;;
77542;SDS011;66669;52.100;5.104;2023-02-18T09:30:31;3.95;;;1.20;;
77542;SDS011;66669;52.100;5.104;2023-02-18T09:32:56;3.40;;;0.82;;
77542;SDS011;66669;52.100;5.104;2023-02-18T09:35:22;5.82;;;1.38;;
77542;SDS011;66669;52.100;5.104;2023-02-18T09:37:47;5.22;;;1.17;;
77542;SDS011;66669;52.100;5.104;2023-02-18T09:40:46;5.53;;;1.40;;
77542;SDS011;66669;52.100;5.104;2023-02-18T09:43:08;2.45;;;0.73;;
77542;SDS011;66669;52.100;5.104;2023-02-18T09:45:49;3.03;;;0.80;;
77542;SDS011;66669;52.100;5.104;2023-02-18T09:48:17;4.68;;;1.08;;
77542;SDS011;66669;52.100;5.104;2023-02-18T09:50:42;5.18;;;0.93;;
77542;SDS011;66669;52.100;5.104;2023-02-18T09:53:15;4.30;;;0.90;;
77542;SDS011;66669;52.100;5.104;2023-02-18T09:55:41;5.13;;;1.23;;
77542;SDS011;66669;52.100;5.104;2023-02-18T09:58:14;4.40;;;1.00;;
77542;SDS011;66669;52.100;5.104;2023-02-18T10:00:49;2.38;;;1.02;;
77542;SDS011;66669;52.100;5.104;2023-02-18T10:03:25;3.72;;;1.10;;
77542;SDS011;66669;52.100;5.104;2023-02-18T10:08:30;5.03;;;1.13;;
77542;SDS011;66669;52.100;5.104;2023-02-18T10:11:00;4.72;;;1.33;;
77542;SDS011;66669;52.100;5.104;2023-02-18T10:13:30;4.18;;;1.02;;
77542;SDS011;66669;52.100;5.104;2023-02-18T10:15:58;4.55;;;0.85;;
77542;SDS011;66669;52.100;5.104;2023-02-18T10:18:28;4.75;;;1.20;;
77542;SDS011;66669;52.100;5.104;2023-02-18T10:20:58;3.72;;;1.20;;
77542;SDS011;66669;52.100;5.104;2023-02-18T10:23:29;4.97;;;1.17;;
77542;SDS011;66669;52.100;5.104;2023-02-18T10:25:57;5.05;;;1.50;;
77542;SDS011;66669;52.100;5.104;2023-02-18T10:28:23;3.53;;;1.00;;
77542;SDS011;66669;52.100;5.104;2023-02-18T10:31:01;3.70;;;0.98;;
77542;SDS011;66669;52.100;5.104;2023-02-18T10:33:55;3.95;;;1.17;;
77542;SDS011;66669;52.100;5.104;2023-02-18T10:36:26;5.13;;;1.15;;
77542;SDS011;66669;52.100;5.104;2023-02-18T10:41:47;4.40;;;1.00;;
77542;SDS011;66669;52.100;5.104;2023-02-18T10:52:34;4.95;;;1.35;;
77542;SDS011;66669;52.100;5.104;2023-02-18T10:55:05;4.53;;;1.30;;
77542;SDS011;66669;52.100;5.104;2023-02-18T10:57:33;4.68;;;1.30;;
77542;SDS011;66669;52.100;5.104;2023-02-18T11:02:41;4.32;;;1.10;;
77542;SDS011;66669;52.100;5.104;2023-02-18T11:05:23;5.68;;;1.38;;
77542;SDS011;66669;52.100;5.104;2023-02-18T11:07:57;4.50;;;1.30;;
77542;SDS011;66669;52.100;5.104;2023-02-18T11:10:23;3.33;;;1.08;;
77542;SDS011;66669;52.100;5.104;2023-02-18T11:13:01;4.10;;;1.20;;
77542;SDS011;66669;52.100;5.104;2023-02-18T11:15:29;4.68;;;1.17;;
77542;SDS011;66669;52.100;5.104;2023-02-18T11:17:56;3.65;;;1.20;;
77542;SDS011;66669;52.100;5.104;2023-02-18T11:20:35;5.53;;;1.25;;
77542;SDS011;66669;52.100;5.104;2023-02-18T11:30:39;4.03;;;1.00;;
77542;SDS011;66669;52.100;5.104;2023-02-18T11:33:15;5.18;;;1.65;;
77542;SDS011;66669;52.100;5.104;2023-02-18T11:35:48;2.67;;;1.00;;
77542;SDS011;66669;52.100;5.104;2023-02-18T11:38:23;3.60;;;1.20;;
77542;SDS011;66669;52.100;5.104;2023-02-18T11:41:16;3.78;;;1.17;;
77542;SDS011;66669;52.100;5.104;2023-02-18T11:43:49;4.50;;;1.20;;
77542;SDS011;66669;52.100;5.104;2023-02-18T11:46:18;3.35;;;1.00;;
77542;SDS011;66669;52.100;5.104;2023-02-18T11:48:48;3.85;;;0.98;;
77542;SDS011;66669;52.100;5.104;2023-02-18T11:54:22;4.18;;;1.20;;
77542;SDS011;66669;52.100;5.104;2023-02-18T11:56:55;4.40;;;1.33;;
77542;SDS011;66669;52.100;5.104;2023-02-18T11:59:22;3.80;;;1.33;;
77542;SDS011;66669;52.100;5.104;2023-02-18T12:01:53;4.65;;;1.15;;
77542;SDS011;66669;52.100;5.104;2023-02-18T12:04:24;4.32;;;1.13;;
77542;SDS011;66669;52.100;5.104;2023-02-18T12:12:16;4.07;;;1.30;;
77542;SDS011;66669;52.100;5.104;2023-02-18T12:14:48;3.00;;;0.95;;
77542;SDS011;66669;52.100;5.104;2023-02-18T12:22:41;4.10;;;1.20;;
77542;SDS011;66669;52.100;5.104;2023-02-18T12:42:30;6.25;;;1.10;;
77542;SDS011;66669;52.100;5.104;2023-02-18T12:51:01;3.20;;;0.87;;
77542;SDS011;66669;52.100;5.104;2023-02-18T12:59:39;3.30;;;0.95;;
77542;SDS011;66669;52.100;5.104;2023-02-18T13:07:55;3.83;;;0.97;;
77542;SDS011;66669;52.100;5.104;2023-02-18T13:13:49;4.32;;;1.00;;
77542;SDS011;66669;52.100;5.104;2023-02-18T13:16:21;2.22;;;0.77;;
77542;SDS011;66669;52.100;5.104;2023-02-18T13:18:57;2.22;;;1.00;;
77542;SDS011;66669;52.100;5.104;2023-02-18T13:21:27;4.03;;;0.85;;
77542;SDS011;66669;52.100;5.104;2023-02-18T13:24:09;3.40;;;0.90;;
77542;SDS011;66669;52.100;5.104;2023-02-18T13:26:38;3.92;;;1.08;;
77542;SDS011;66669;52.100;5.104;2023-02-18T13:34:59;3.47;;;0.88;;
77542;SDS011;66669;52.100;5.104;2023-02-18T13:40:34;3.65;;;1.00;;
77542;SDS011;66669;52.100;5.104;2023-02-18T13:46:00;3.38;;;0.80;;
77542;SDS011;66669;52.100;5.104;2023-02-18T13:51:10;3.25;;;0.80;;
77542;SDS011;66669;52.100;5.104;2023-02-18T13:53:38;3.05;;;0.88;;
77542;SDS011;66669;52.100;5.104;2023-02-18T13:58:51;2.17;;;0.80;;
77542;SDS011;66669;52.100;5.104;2023-02-18T14:01:21;2.83;;;0.70;;
77542;SDS011;66669;52.100;5.104;2023-02-18T14:03:50;2.17;;;0.68;;
77542;SDS011;66669;52.100;5.104;2023-02-18T14:07:23;1.75;;;0.63;;
77542;SDS011;66669;52.100;5.104;2023-02-18T14:09:34;2.25;;;0.80;;
77542;SDS011;66669;52.100;5.104;2023-02-18T14:17:43;1.20;;;0.50;;
77542;SDS011;66669;52.100;5.104;2023-02-18T14:25:21;2.58;;;0.70;;
77542;SDS011;66669;52.100;5.104;2023-02-18T14:28:00;1.98;;;0.70;;
77542;SDS011;66669;52.100;5.104;2023-02-18T14:30:30;2.05;;;0.63;;
77542;SDS011;66669;52.100;5.104;2023-02-18T14:33:02;1.10;;;0.35;;
77542;SDS011;66669;52.100;5.104;2023-02-18T14:43:47;2.25;;;0.60;;
77542;SDS011;66669;52.100;5.104;2023-02-18T14:49:38;0.73;;;0.30;;
77542;SDS011;66669;52.100;5.104;2023-02-18T14:52:16;1.85;;;0.43;;
77542;SDS011;66669;52.100;5.104;2023-02-18T14:55:03;2.00;;;0.55;;
77542;SDS011;66669;52.100;5.104;2023-02-18T14:57:37;1.35;;;0.50;;
77542;SDS011;66669;52.100;5.104;2023-02-18T15:00:18;2.33;;;0.50;;
77542;SDS011;66669;52.100;5.104;2023-02-18T15:02:48;1.80;;;0.50;;
77542;SDS011;66669;52.100;5.104;2023-02-18T15:05:17;2.05;;;0.60;;
77542;SDS011;66669;52.100;5.104;2023-02-18T15:07:54;2.22;;;0.70;;
77542;SDS011;66669;52.100;5.104;2023-02-18T15:10:20;3.20;;;0.70;;
77542;SDS011;66669;52.100;5.104;2023-02-18T15:12:46;1.52;;;0.55;;
77542;SDS011;66669;52.100;5.104;2023-02-18T15:15:12;2.42;;;0.80;;
77542;SDS011;66669;52.100;5.104;2023-02-18T15:17:46;2.53;;;0.63;;
77542;SDS011;66669;52.100;5.104;2023-02-18T15:20:13;2.92;;;0.85;;
77542;SDS011;66669;52.100;5.104;2023-02-18T15:22:39;2.42;;;0.80;;
77542;SDS011;66669;52.100;5.104;2023-02-18T15:25:06;2.83;;;0.80;;
77542;SDS011;66669;52.100;5.104;2023-02-18T15:27:37;2.40;;;0.68;;
77542;SDS011;66669;52.100;5.104;2023-02-18T15:32:56;1.88;;;0.57;;
77542;SDS011;66669;52.100;5.104;2023-02-18T15:35:30;3.58;;;1.00;;
77542;SDS011;66669;52.100;5.104;2023-02-18T15:37:57;2.80;;;0.90;;
77542;SDS011;66669;52.100;5.104;2023-02-18T15:40:26;2.83;;;0.90;;
77542;SDS011;66669;52.100;5.104;2023-02-18T15:42:57;3.05;;;0.93;;
77542;SDS011;66669;52.100;5.104;2023-02-18T15:45:28;4.20;;;1.10;;
77542;SDS011;66669;52.100;5.104;2023-02-18T15:50:29;3.10;;;0.80;;
77542;SDS011;66669;52.100;5.104;2023-02-18T15:52:58;3.13;;;0.80;;
77542;SDS011;66669;52.100;5.104;2023-02-18T15:55:30;2.85;;;0.70;;
77542;SDS011;66669;52.100;5.104;2023-02-18T15:57:58;2.45;;;0.63;;
77542;SDS011;66669;52.100;5.104;2023-02-18T16:00:29;2.47;;;0.80;;
77542;SDS011;66669;52.100;5.104;2023-02-18T16:03:03;2.80;;;0.75;;
77542;SDS011;66669;52.100;5.104;2023-02-18T16:05:36;2.57;;;0.77;;
77542;SDS011;66669;52.100;5.104;2023-02-18T16:08:45;3.97;;;1.08;;
77542;SDS011;66669;52.100;5.104;2023-02-18T16:10:53;2.38;;;0.63;;
77542;SDS011;66669;52.100;5.104;2023-02-18T16:13:24;2.97;;;0.85;;
77542;SDS011;66669;52.100;5.104;2023-02-18T16:15:50;2.35;;;0.70;;
77542;SDS011;66669;52.100;5.104;2023-02-18T16:18:23;3.17;;;0.80;;
77542;SDS011;66669;52.100;5.104;2023-02-18T16:20:59;3.25;;;0.93;;
77542;SDS011;66669;52.100;5.104;2023-02-18T16:23:34;3.50;;;1.00;;
77542;SDS011;66669;52.100;5.104;2023-02-18T16:26:08;2.30;;;0.80;;
77542;SDS011;66669;52.100;5.104;2023-02-18T16:28:44;3.75;;;0.90;;
77542;SDS011;66669;52.100;5.104;2023-02-18T16:31:10;4.85;;;1.00;;
77542;SDS011;66669;52.100;5.104;2023-02-18T16:33:36;3.17;;;0.80;;
77542;SDS011;66669;52.100;5.104;2023-02-18T16:36:01;2.60;;;0.90;;
77542;SDS011;66669;52.100;5.104;2023-02-18T16:38:27;3.10;;;0.90;;
77542;SDS011;66669;52.100;5.104;2023-02-18T16:40:53;4.05;;;1.13;;
77542;SDS011;66669;52.100;5.104;2023-02-18T16:43:23;5.22;;;0.98;;
77542;SDS011;66669;52.100;5.104;2023-02-18T16:45:54;3.88;;;1.10;;
77542;SDS011;66669;52.100;5.104;2023-02-18T16:51:01;3.38;;;1.00;;
77542;SDS011;66669;52.100;5.104;2023-02-18T16:53:29;2.95;;;0.93;;
77542;SDS011;66669;52.100;5.104;2023-02-18T16:55:55;4.10;;;0.80;;
77542;SDS011;66669;52.100;5.104;2023-02-18T16:58:20;4.30;;;1.48;;
77542;SDS011;66669;52.100;5.104;2023-02-18T17:00:46;3.55;;;0.88;;
77542;SDS011;66669;52.100;5.104;2023-02-18T17:03:15;3.58;;;1.00;;
77542;SDS011;66669;52.100;5.104;2023-02-18T17:05:41;3.08;;;0.95;;
77542;SDS011;66669;52.100;5.104;2023-02-18T17:13:18;2.08;;;0.80;;
77542;SDS011;66669;52.100;5.104;2023-02-18T17:15:46;3.53;;;1.05;;
77542;SDS011;66669;52.100;5.104;2023-02-18T17:18:13;5.55;;;1.10;;
77542;SDS011;66669;52.100;5.104;2023-02-18T17:20:39;4.45;;;1.33;;
77542;SDS011;66669;52.100;5.104;2023-02-18T17:23:05;3.20;;;0.95;;
77542;SDS011;66669;52.100;5.104;2023-02-18T17:25:34;3.33;;;1.40;;
77542;SDS011;66669;52.100;5.104;2023-02-18T17:28:02;4.60;;;0.93;;
77542;SDS011;66669;52.100;5.104;2023-02-18T17:30:28;4.45;;;1.10;;
77542;SDS011;66669;52.100;5.104;2023-02-18T17:32:57;2.70;;;0.90;;
77542;SDS011;66669;52.100;5.104;2023-02-18T17:37:51;3.63;;;1.05;;
77542;SDS011;66669;52.100;5.104;2023-02-18T17:40:21;3.38;;;0.80;;
77542;SDS011;66669;52.100;5.104;2023-02-18T17:42:49;3.05;;;1.10;;
77542;SDS011;66669;52.100;5.104;2023-02-18T17:47:40;4.38;;;1.25;;
77542;SDS011;66669;52.100;5.104;2023-02-18T17:50:06;3.60;;;1.10;;
77542;SDS011;66669;52.100;5.104;2023-02-18T17:52:31;4.18;;;1.30;;
77542;SDS011;66669;52.100;5.104;2023-02-18T17:54:57;2.85;;;1.00;;
77542;SDS011;66669;52.100;5.104;2023-02-18T17:57:22;4.68;;;1.23;;